Geroi Shipki — EOIB — position and weather

sailwx.info

Track history (hours):
 
Tides and Currents Weather Stations Pressure Air Temp Water Temp Dewpoint Dewpoint Depression Visibility Wind Speed Wind Dir Waves Ship Positions

Geroi Shipki

Last reported at 2015-Feb-17 23:11 UTC. Time now 2015-Mar-04 02:51 UTC.
Position N 43°53' E 034°40'.
Warning: this ship's position is 14 days out of date.

Length 184 m; draft 6.7 m.

Type: Cargo ship. MMSI: 272976000.

Date/timePositionNaut miles runAvg speedWind from/ knotsBaromVisibWave heightAir tempDewpointWater temp
2015-Feb-17 23:11N 43°53' E 034°40'6 9.5
2015-Feb-17 22:30N 43°55' E 034°32'9 9.3
2015-Feb-17 21:32N 43°58' E 034°20'9 9.5
2015-Feb-17 20:32N 44°01' E 034°08'10 9.3
2015-Feb-17 19:31N 44°04' E 033°55'5410.1
2015-Feb-17 14:12N 44°39' E 032°58'  
2015-Feb-09 04:33N 44°07' E 033°55'9 9.4
2015-Feb-09 03:33N 44°04' E 034°07'9 9.2
2015-Feb-09 02:32N 44°01' E 034°20'9 8.8
2015-Feb-09 01:33N 43°58' E 034°31'  
Track history (hours):
 
Tides and Currents Weather Stations Pressure Air Temp Water Temp Dewpoint Dewpoint Depression Visibility Wind Speed Wind Dir Waves Ship Positions

Geroi Shipki

Last reported at 2015-Feb-17 23:11 UTC. Time now 2015-Mar-04 02:51 UTC.
Position N 43°53' E 034°40'.
Warning: this ship's position is 14 days out of date.

Length 184 m; draft 6.7 m.

Type: Cargo ship. MMSI: 272976000.

Date/timePositionNaut miles runAvg speedWind from/ knotsBaromVisibWave heightAir tempDewpointWater temp
2015-Feb-17 23:11N 43°53' E 034°40'6 9.5
2015-Feb-17 22:30N 43°55' E 034°32'9 9.3
2015-Feb-17 21:32N 43°58' E 034°20'9 9.5
2015-Feb-17 20:32N 44°01' E 034°08'10 9.3
2015-Feb-17 19:31N 44°04' E 033°55'5410.1
2015-Feb-17 14:12N 44°39' E 032°58'  
2015-Feb-09 04:33N 44°07' E 033°55'9 9.4
2015-Feb-09 03:33N 44°04' E 034°07'9 9.2
2015-Feb-09 02:32N 44°01' E 034°20'9 8.8
2015-Feb-09 01:33N 43°58' E 034°31'  

Dump ship's entire track history